sensor_id;sensor_type;location;lat;lon;timestamp;temperature;humidity
52203;DHT22;38173;52.850;6.970;2022-08-11T00:00:10;15.70;99.90
52203;DHT22;38173;52.850;6.970;2022-08-11T00:02:47;15.60;99.90
52203;DHT22;38173;52.850;6.970;2022-08-11T00:05:17;15.60;99.90
52203;DHT22;38173;52.850;6.970;2022-08-11T00:07:54;15.50;99.90
52203;DHT22;38173;52.850;6.970;2022-08-11T00:10:23;15.50;99.90
52203;DHT22;38173;52.850;6.970;2022-08-11T00:12:59;15.40;99.90
52203;DHT22;38173;52.850;6.970;2022-08-11T00:15:27;15.30;99.90
52203;DHT22;38173;52.850;6.970;2022-08-11T00:18:00;15.30;99.90
52203;DHT22;38173;52.850;6.970;2022-08-11T00:20:31;15.20;99.90
52203;DHT22;38173;52.850;6.970;2022-08-11T00:23:05;15.10;99.90
52203;DHT22;38173;52.850;6.970;2022-08-11T00:25:40;15.00;99.90
52203;DHT22;38173;52.850;6.970;2022-08-11T00:28:23;15.10;99.90
52203;DHT22;38173;52.850;6.970;2022-08-11T00:30:51;15.00;99.90
52203;DHT22;38173;52.850;6.970;2022-08-11T00:33:19;15.10;99.90
52203;DHT22;38173;52.850;6.970;2022-08-11T00:35:48;15.00;99.90
52203;DHT22;38173;52.850;6.970;2022-08-11T00:38:16;15.00;99.90
52203;DHT22;38173;52.850;6.970;2022-08-11T00:41:00;14.90;99.90
52203;DHT22;38173;52.850;6.970;2022-08-11T00:43:56;14.80;99.90
52203;DHT22;38173;52.850;6.970;2022-08-11T00:46:39;14.80;99.90
52203;DHT22;38173;52.850;6.970;2022-08-11T00:58:09;14.60;99.90
52203;DHT22;38173;52.850;6.970;2022-08-11T01:06:37;14.70;99.90
52203;DHT22;38173;52.850;6.970;2022-08-11T01:26:29;14.60;99.90
52203;DHT22;38173;52.850;6.970;2022-08-11T01:49:46;14.30;99.90
52203;DHT22;38173;52.850;6.970;2022-08-11T01:52:27;14.30;99.90
52203;DHT22;38173;52.850;6.970;2022-08-11T01:55:31;14.30;99.90
52203;DHT22;38173;52.850;6.970;2022-08-11T01:58:04;14.30;99.90
52203;DHT22;38173;52.850;6.970;2022-08-11T02:00:44;14.30;99.90
52203;DHT22;38173;52.850;6.970;2022-08-11T02:03:24;14.30;99.90
52203;DHT22;38173;52.850;6.970;2022-08-11T02:06:04;14.40;99.90
52203;DHT22;38173;52.850;6.970;2022-08-11T02:09:02;14.40;99.90
52203;DHT22;38173;52.850;6.970;2022-08-11T02:11:32;14.40;99.90
52203;DHT22;38173;52.850;6.970;2022-08-11T02:19:56;14.30;99.90
52203;DHT22;38173;52.850;6.970;2022-08-11T02:23:01;14.30;99.90
52203;DHT22;38173;52.850;6.970;2022-08-11T02:26:11;14.40;99.90
52203;DHT22;38173;52.850;6.970;2022-08-11T02:37:28;14.50;99.90
52203;DHT22;38173;52.850;6.970;2022-08-11T02:40:05;14.40;99.90
52203;DHT22;38173;52.850;6.970;2022-08-11T02:45:39;14.30;99.90
52203;DHT22;38173;52.850;6.970;2022-08-11T02:48:38;14.30;99.90
52203;DHT22;38173;52.850;6.970;2022-08-11T02:54:21;14.20;99.90
52203;DHT22;38173;52.850;6.970;2022-08-11T02:57:28;14.20;99.90
52203;DHT22;38173;52.850;6.970;2022-08-11T03:00:12;14.20;99.90
52203;DHT22;38173;52.850;6.970;2022-08-11T03:11:16;14.00;99.90
52203;DHT22;38173;52.850;6.970;2022-08-11T03:14:57;13.90;99.90
52203;DHT22;38173;52.850;6.970;2022-08-11T03:23:34;13.60;99.90
52203;DHT22;38173;52.850;6.970;2022-08-11T03:26:21;13.50;99.90
52203;DHT22;38173;52.850;6.970;2022-08-11T03:29:34;13.50;99.90
52203;DHT22;38173;52.850;6.970;2022-08-11T03:32:06;13.50;99.90
52203;DHT22;38173;52.850;6.970;2022-08-11T03:34:35;13.40;99.90
52203;DHT22;38173;52.850;6.970;2022-08-11T03:37:22;13.40;99.90
52203;DHT22;38173;52.850;6.970;2022-08-11T03:46:11;13.30;99.90
52203;DHT22;38173;52.850;6.970;2022-08-11T03:48:48;13.30;99.90
52203;DHT22;38173;52.850;6.970;2022-08-11T03:51:24;13.30;99.90
52203;DHT22;38173;52.850;6.970;2022-08-11T03:54:05;13.30;99.90
52203;DHT22;38173;52.850;6.970;2022-08-11T04:02:18;13.20;99.90
52203;DHT22;38173;52.850;6.970;2022-08-11T04:19:00;13.40;99.90
52203;DHT22;38173;52.850;6.970;2022-08-11T04:30:03;13.30;99.90
52203;DHT22;38173;52.850;6.970;2022-08-11T04:35:38;13.30;99.90
52203;DHT22;38173;52.850;6.970;2022-08-11T04:38:13;13.20;99.90
52203;DHT22;38173;52.850;6.970;2022-08-11T04:46:58;13.20;99.90
52203;DHT22;38173;52.850;6.970;2022-08-11T04:53:24;13.20;99.90
52203;DHT22;38173;52.850;6.970;2022-08-11T04:56:23;13.10;99.90
52203;DHT22;38173;52.850;6.970;2022-08-11T05:05:27;13.20;99.90
52203;DHT22;38173;52.850;6.970;2022-08-11T05:14:19;13.30;99.90
52203;DHT22;38173;52.850;6.970;2022-08-11T05:17:10;13.30;99.90
52203;DHT22;38173;52.850;6.970;2022-08-11T05:19:56;13.40;99.90
52203;DHT22;38173;52.850;6.970;2022-08-11T05:22:49;13.40;99.90
52203;DHT22;38173;52.850;6.970;2022-08-11T05:25:34;13.50;99.90
52203;DHT22;38173;52.850;6.970;2022-08-11T05:31:37;13.60;99.90
52203;DHT22;38173;52.850;6.970;2022-08-11T05:34:33;13.70;99.90
52203;DHT22;38173;52.850;6.970;2022-08-11T05:39:59;13.90;99.90
52203;DHT22;38173;52.850;6.970;2022-08-11T05:42:49;14.00;99.90
52203;DHT22;38173;52.850;6.970;2022-08-11T05:45:34;14.10;99.90
52203;DHT22;38173;52.850;6.970;2022-08-11T05:48:20;14.20;99.90
52203;DHT22;38173;52.850;6.970;2022-08-11T05:51:05;14.30;99.90
52203;DHT22;38173;52.850;6.970;2022-08-11T05:53:52;14.40;99.90
52203;DHT22;38173;52.850;6.970;2022-08-11T05:56:48;14.50;99.90
52203;DHT22;38173;52.850;6.970;2022-08-11T05:59:17;14.60;99.90
52203;DHT22;38173;52.850;6.970;2022-08-11T06:01:44;14.70;99.90
52203;DHT22;38173;52.850;6.970;2022-08-11T06:04:20;14.90;99.90
52203;DHT22;38173;52.850;6.970;2022-08-11T06:06:48;15.10;99.90
52203;DHT22;38173;52.850;6.970;2022-08-11T06:09:33;15.20;99.90
52203;DHT22;38173;52.850;6.970;2022-08-11T06:12:21;15.40;99.90
52203;DHT22;38173;52.850;6.970;2022-08-11T06:14:52;15.60;99.90
52203;DHT22;38173;52.850;6.970;2022-08-11T06:17:27;15.80;99.90
52203;DHT22;38173;52.850;6.970;2022-08-11T06:20:06;16.00;99.90
52203;DHT22;38173;52.850;6.970;2022-08-11T06:22:55;16.20;99.90
52203;DHT22;38173;52.850;6.970;2022-08-11T06:25:22;16.30;99.90
52203;DHT22;38173;52.850;6.970;2022-08-11T06:27:55;16.50;99.90
52203;DHT22;38173;52.850;6.970;2022-08-11T06:30:33;16.60;99.90
52203;DHT22;38173;52.850;6.970;2022-08-11T06:33:20;16.80;99.90
52203;DHT22;38173;52.850;6.970;2022-08-11T06:36:09;17.00;99.90
52203;DHT22;38173;52.850;6.970;2022-08-11T06:41:48;17.40;99.90
52203;DHT22;38173;52.850;6.970;2022-08-11T06:44:22;17.60;99.90
52203;DHT22;38173;52.850;6.970;2022-08-11T06:46:51;17.80;99.90
52203;DHT22;38173;52.850;6.970;2022-08-11T06:49:21;18.00;99.90
52203;DHT22;38173;52.850;6.970;2022-08-11T06:52:10;18.20;99.90
52203;DHT22;38173;52.850;6.970;2022-08-11T06:54:43;18.40;99.90
52203;DHT22;38173;52.850;6.970;2022-08-11T06:57:17;18.50;99.90
52203;DHT22;38173;52.850;6.970;2022-08-11T07:00:03;18.70;99.90
52203;DHT22;38173;52.850;6.970;2022-08-11T07:03:10;18.80;99.90
52203;DHT22;38173;52.850;6.970;2022-08-11T07:14:11;19.40;99.90
52203;DHT22;38173;52.850;6.970;2022-08-11T07:17:00;19.50;99.90
52203;DHT22;38173;52.850;6.970;2022-08-11T07:19:28;19.70;99.90
52203;DHT22;38173;52.850;6.970;2022-08-11T07:22:13;19.80;99.90
52203;DHT22;38173;52.850;6.970;2022-08-11T07:25:08;20.00;99.90
52203;DHT22;38173;52.850;6.970;2022-08-11T07:28:01;20.10;99.90
52203;DHT22;38173;52.850;6.970;2022-08-11T07:30:46;20.30;99.90
52203;DHT22;38173;52.850;6.970;2022-08-11T07:33:21;20.50;99.90
52203;DHT22;38173;52.850;6.970;2022-08-11T07:35:51;20.60;99.90
52203;DHT22;38173;52.850;6.970;2022-08-11T07:38:37;20.80;99.90
52203;DHT22;38173;52.850;6.970;2022-08-11T07:41:14;20.90;99.90
52203;DHT22;38173;52.850;6.970;2022-08-11T07:43:41;21.00;99.90
52203;DHT22;38173;52.850;6.970;2022-08-11T07:46:07;21.20;99.90
52203;DHT22;38173;52.850;6.970;2022-08-11T07:48:53;21.20;99.90
52203;DHT22;38173;52.850;6.970;2022-08-11T07:51:39;21.40;99.90
52203;DHT22;38173;52.850;6.970;2022-08-11T07:54:24;21.50;99.90
52203;DHT22;38173;52.850;6.970;2022-08-11T07:56:51;21.60;99.90
52203;DHT22;38173;52.850;6.970;2022-08-11T07:59:18;21.70;99.90
52203;DHT22;38173;52.850;6.970;2022-08-11T08:02:03;21.80;99.90
52203;DHT22;38173;52.850;6.970;2022-08-11T08:04:48;21.90;99.90
52203;DHT22;38173;52.850;6.970;2022-08-11T08:07:33;22.00;99.90
52203;DHT22;38173;52.850;6.970;2022-08-11T08:10:18;22.10;99.90
52203;DHT22;38173;52.850;6.970;2022-08-11T08:13:04;22.20;99.90
52203;DHT22;38173;52.850;6.970;2022-08-11T08:15:51;22.40;99.90
52203;DHT22;38173;52.850;6.970;2022-08-11T08:18:36;22.60;99.90
52203;DHT22;38173;52.850;6.970;2022-08-11T08:21:03;22.80;99.90
52203;DHT22;38173;52.850;6.970;2022-08-11T08:23:44;22.90;99.90
52203;DHT22;38173;52.850;6.970;2022-08-11T08:26:13;23.20;99.90
52203;DHT22;38173;52.850;6.970;2022-08-11T08:29:01;23.30;99.90
52203;DHT22;38173;52.850;6.970;2022-08-11T08:31:48;23.40;99.90
52203;DHT22;38173;52.850;6.970;2022-08-11T08:34:15;23.60;99.90
52203;DHT22;38173;52.850;6.970;2022-08-11T08:36:43;23.70;99.90
52203;DHT22;38173;52.850;6.970;2022-08-11T08:39:10;23.80;99.90
52203;DHT22;38173;52.850;6.970;2022-08-11T08:41:37;24.00;99.90
52203;DHT22;38173;52.850;6.970;2022-08-11T08:44:08;24.10;99.90
52203;DHT22;38173;52.850;6.970;2022-08-11T08:46:38;24.20;99.90
52203;DHT22;38173;52.850;6.970;2022-08-11T08:49:06;24.30;99.90
52203;DHT22;38173;52.850;6.970;2022-08-11T08:51:37;24.50;99.90
52203;DHT22;38173;52.850;6.970;2022-08-11T08:54:08;24.60;99.90
52203;DHT22;38173;52.850;6.970;2022-08-11T08:56:38;24.80;99.90
52203;DHT22;38173;52.850;6.970;2022-08-11T08:59:05;24.80;99.90
52203;DHT22;38173;52.850;6.970;2022-08-11T09:01:37;25.00;99.90
52203;DHT22;38173;52.850;6.970;2022-08-11T09:04:06;25.00;98.00
52203;DHT22;38173;52.850;6.970;2022-08-11T09:06:39;25.00;99.90
52203;DHT22;38173;52.850;6.970;2022-08-11T09:09:07;25.20;99.90
52203;DHT22;38173;52.850;6.970;2022-08-11T09:11:35;25.30;98.70
52203;DHT22;38173;52.850;6.970;2022-08-11T09:14:26;25.40;98.20
52203;DHT22;38173;52.850;6.970;2022-08-11T09:17:17;25.50;95.90
52203;DHT22;38173;52.850;6.970;2022-08-11T09:19:44;25.60;95.10
52203;DHT22;38173;52.850;6.970;2022-08-11T09:22:10;25.70;94.00
52203;DHT22;38173;52.850;6.970;2022-08-11T09:24:55;25.90;93.90
52203;DHT22;38173;52.850;6.970;2022-08-11T09:27:41;26.00;93.40
52203;DHT22;38173;52.850;6.970;2022-08-11T09:30:08;26.20;92.70
52203;DHT22;38173;52.850;6.970;2022-08-11T09:32:37;26.20;92.30
52203;DHT22;38173;52.850;6.970;2022-08-11T09:35:04;26.30;91.40
52203;DHT22;38173;52.850;6.970;2022-08-11T09:37:30;26.30;90.80
52203;DHT22;38173;52.850;6.970;2022-08-11T09:40:15;26.20;89.90
52203;DHT22;38173;52.850;6.970;2022-08-11T09:42:58;26.20;88.30
52203;DHT22;38173;52.850;6.970;2022-08-11T09:45:50;26.20;90.30
52203;DHT22;38173;52.850;6.970;2022-08-11T09:48:22;26.30;88.80
52203;DHT22;38173;52.850;6.970;2022-08-11T09:50:49;26.40;86.20
52203;DHT22;38173;52.850;6.970;2022-08-11T09:53:17;26.40;89.20
52203;DHT22;38173;52.850;6.970;2022-08-11T09:55:43;26.50;85.80
52203;DHT22;38173;52.850;6.970;2022-08-11T09:58:10;26.70;83.70
52203;DHT22;38173;52.850;6.970;2022-08-11T10:00:41;26.70;83.70
52203;DHT22;38173;52.850;6.970;2022-08-11T10:03:20;26.80;82.50
52203;DHT22;38173;52.850;6.970;2022-08-11T10:06:00;26.90;83.30
52203;DHT22;38173;52.850;6.970;2022-08-11T10:08:46;27.00;80.40
52203;DHT22;38173;52.850;6.970;2022-08-11T10:11:18;27.20;82.80
52203;DHT22;38173;52.850;6.970;2022-08-11T10:13:46;27.30;81.00
52203;DHT22;38173;52.850;6.970;2022-08-11T10:16:34;27.40;79.50
52203;DHT22;38173;52.850;6.970;2022-08-11T10:19:03;27.40;79.00
52203;DHT22;38173;52.850;6.970;2022-08-11T10:21:45;27.30;79.30
52203;DHT22;38173;52.850;6.970;2022-08-11T10:24:32;27.40;75.00
52203;DHT22;38173;52.850;6.970;2022-08-11T10:27:17;27.30;72.00
52203;DHT22;38173;52.850;6.970;2022-08-11T10:29:43;27.30;70.70
52203;DHT22;38173;52.850;6.970;2022-08-11T10:32:29;27.20;73.20
52203;DHT22;38173;52.850;6.970;2022-08-11T10:35:14;27.20;72.30
52203;DHT22;38173;52.850;6.970;2022-08-11T10:37:43;27.20;66.50
52203;DHT22;38173;52.850;6.970;2022-08-11T10:40:14;27.20;71.10
52203;DHT22;38173;52.850;6.970;2022-08-11T10:42:40;27.30;71.10
52203;DHT22;38173;52.850;6.970;2022-08-11T10:45:25;27.30;69.40
52203;DHT22;38173;52.850;6.970;2022-08-11T10:48:10;27.30;71.20
52203;DHT22;38173;52.850;6.970;2022-08-11T10:50:37;27.40;72.00
52203;DHT22;38173;52.850;6.970;2022-08-11T10:53:22;27.50;71.50
52203;DHT22;38173;52.850;6.970;2022-08-11T10:56:07;27.60;72.20
52203;DHT22;38173;52.850;6.970;2022-08-11T10:58:53;27.70;70.20
52203;DHT22;38173;52.850;6.970;2022-08-11T11:01:32;27.70;68.20
52203;DHT22;38173;52.850;6.970;2022-08-11T11:04:16;27.80;69.20
52203;DHT22;38173;52.850;6.970;2022-08-11T11:09:37;27.90;70.80
52203;DHT22;38173;52.850;6.970;2022-08-11T11:14:54;28.00;70.00
52203;DHT22;38173;52.850;6.970;2022-08-11T11:17:46;28.00;68.10
52203;DHT22;38173;52.850;6.970;2022-08-11T11:20:28;28.00;67.60
52203;DHT22;38173;52.850;6.970;2022-08-11T11:23:17;28.00;67.50
52203;DHT22;38173;52.850;6.970;2022-08-11T11:28:56;28.00;66.60
52203;DHT22;38173;52.850;6.970;2022-08-11T11:36:54;28.10;67.20
52203;DHT22;38173;52.850;6.970;2022-08-11T11:39:22;28.20;66.90
52203;DHT22;38173;52.850;6.970;2022-08-11T11:41:52;28.20;65.90
52203;DHT22;38173;52.850;6.970;2022-08-11T11:44:20;28.20;67.20
52203;DHT22;38173;52.850;6.970;2022-08-11T11:46:49;28.30;66.20
52203;DHT22;38173;52.850;6.970;2022-08-11T11:49:22;28.40;65.40
52203;DHT22;38173;52.850;6.970;2022-08-11T11:51:50;28.40;64.90
52203;DHT22;38173;52.850;6.970;2022-08-11T11:54:21;28.40;64.90
52203;DHT22;38173;52.850;6.970;2022-08-11T11:56:51;28.40;64.50
52203;DHT22;38173;52.850;6.970;2022-08-11T11:59:20;28.50;65.50
52203;DHT22;38173;52.850;6.970;2022-08-11T12:02:06;28.60;63.40
52203;DHT22;38173;52.850;6.970;2022-08-11T12:04:32;28.50;64.20
52203;DHT22;38173;52.850;6.970;2022-08-11T12:07:00;28.50;63.50
52203;DHT22;38173;52.850;6.970;2022-08-11T12:09:45;28.50;60.00
52203;DHT22;38173;52.850;6.970;2022-08-11T12:12:12;28.50;59.20
52203;DHT22;38173;52.850;6.970;2022-08-11T12:14:57;28.60;59.00
52203;DHT22;38173;52.850;6.970;2022-08-11T12:17:23;28.60;59.60
52203;DHT22;38173;52.850;6.970;2022-08-11T12:19:50;28.60;59.40
52203;DHT22;38173;52.850;6.970;2022-08-11T12:22:16;28.70;61.80
52203;DHT22;38173;52.850;6.970;2022-08-11T12:25:02;28.70;62.80
52203;DHT22;38173;52.850;6.970;2022-08-11T12:27:47;28.80;61.20
52203;DHT22;38173;52.850;6.970;2022-08-11T12:30:13;28.80;62.20
52203;DHT22;38173;52.850;6.970;2022-08-11T12:32:39;28.90;62.90
52203;DHT22;38173;52.850;6.970;2022-08-11T12:35:06;29.00;63.20
52203;DHT22;38173;52.850;6.970;2022-08-11T12:37:53;28.90;60.60
52203;DHT22;38173;52.850;6.970;2022-08-11T12:40:25;29.00;59.90
52203;DHT22;38173;52.850;6.970;2022-08-11T12:43:14;29.00;56.60
52203;DHT22;38173;52.850;6.970;2022-08-11T12:46:01;29.20;60.90
52203;DHT22;38173;52.850;6.970;2022-08-11T12:48:34;29.20;59.30
52203;DHT22;38173;52.850;6.970;2022-08-11T12:51:24;29.30;57.80
52203;DHT22;38173;52.850;6.970;2022-08-11T12:56:40;29.80;60.30
52203;DHT22;38173;52.850;6.970;2022-08-11T12:59:25;30.00;58.80
52203;DHT22;38173;52.850;6.970;2022-08-11T13:02:16;30.50;59.80
52203;DHT22;38173;52.850;6.970;2022-08-11T13:05:02;31.10;58.70
52203;DHT22;38173;52.850;6.970;2022-08-11T13:07:30;31.90;56.60
52203;DHT22;38173;52.850;6.970;2022-08-11T13:10:04;32.50;57.70
52203;DHT22;38173;52.850;6.970;2022-08-11T13:12:31;33.10;56.30
52203;DHT22;38173;52.850;6.970;2022-08-11T13:15:20;33.60;56.90
52203;DHT22;38173;52.850;6.970;2022-08-11T13:17:51;33.70;56.50
52203;DHT22;38173;52.850;6.970;2022-08-11T13:20:20;33.80;54.70
52203;DHT22;38173;52.850;6.970;2022-08-11T13:22:53;34.30;54.10
52203;DHT22;38173;52.850;6.970;2022-08-11T13:25:21;34.70;55.20
52203;DHT22;38173;52.850;6.970;2022-08-11T13:27:49;34.90;52.50
52203;DHT22;38173;52.850;6.970;2022-08-11T13:30:16;35.10;50.90
52203;DHT22;38173;52.850;6.970;2022-08-11T13:33:02;35.30;54.70
52203;DHT22;38173;52.850;6.970;2022-08-11T13:35:30;35.80;53.20
52203;DHT22;38173;52.850;6.970;2022-08-11T13:37:57;36.00;52.50
52203;DHT22;38173;52.850;6.970;2022-08-11T13:40:23;36.10;51.60
52203;DHT22;38173;52.850;6.970;2022-08-11T13:42:50;36.20;51.10
52203;DHT22;38173;52.850;6.970;2022-08-11T13:45:17;36.20;50.70
52203;DHT22;38173;52.850;6.970;2022-08-11T13:47:44;36.20;52.80
52203;DHT22;38173;52.850;6.970;2022-08-11T13:50:11;36.00;49.70
52203;DHT22;38173;52.850;6.970;2022-08-11T13:52:40;36.00;49.90
52203;DHT22;38173;52.850;6.970;2022-08-11T13:55:09;36.00;49.10
52203;DHT22;38173;52.850;6.970;2022-08-11T13:57:35;36.00;48.90
52203;DHT22;38173;52.850;6.970;2022-08-11T14:00:06;36.00;51.20
52203;DHT22;38173;52.850;6.970;2022-08-11T14:02:42;36.00;48.70
52203;DHT22;38173;52.850;6.970;2022-08-11T14:05:14;36.20;50.60
52203;DHT22;38173;52.850;6.970;2022-08-11T14:08:01;36.30;48.30
52203;DHT22;38173;52.850;6.970;2022-08-11T14:10:29;36.30;50.80
52203;DHT22;38173;52.850;6.970;2022-08-11T14:12:59;36.30;49.20
52203;DHT22;38173;52.850;6.970;2022-08-11T14:15:45;36.30;51.30
52203;DHT22;38173;52.850;6.970;2022-08-11T14:18:18;36.40;50.00
52203;DHT22;38173;52.850;6.970;2022-08-11T14:20:49;36.40;49.90
52203;DHT22;38173;52.850;6.970;2022-08-11T14:23:38;36.40;47.90
52203;DHT22;38173;52.850;6.970;2022-08-11T14:26:06;36.50;45.70
52203;DHT22;38173;52.850;6.970;2022-08-11T14:28:58;36.40;48.20
52203;DHT22;38173;52.850;6.970;2022-08-11T14:31:28;36.30;46.20
52203;DHT22;38173;52.850;6.970;2022-08-11T14:33:55;36.30;46.00
52203;DHT22;38173;52.850;6.970;2022-08-11T14:36:26;36.40;48.30
52203;DHT22;38173;52.850;6.970;2022-08-11T14:38:53;36.60;45.40
52203;DHT22;38173;52.850;6.970;2022-08-11T14:41:20;36.70;44.40
52203;DHT22;38173;52.850;6.970;2022-08-11T14:44:07;37.00;49.10
52203;DHT22;38173;52.850;6.970;2022-08-11T14:46:52;37.20;46.20
52203;DHT22;38173;52.850;6.970;2022-08-11T14:49:33;37.10;44.10
52203;DHT22;38173;52.850;6.970;2022-08-11T14:52:02;37.30;48.20
52203;DHT22;38173;52.850;6.970;2022-08-11T14:54:29;37.60;49.10
52203;DHT22;38173;52.850;6.970;2022-08-11T14:57:15;37.90;49.60
52203;DHT22;38173;52.850;6.970;2022-08-11T14:59:42;38.00;44.30
52203;DHT22;38173;52.850;6.970;2022-08-11T15:02:10;38.00;45.80
52203;DHT22;38173;52.850;6.970;2022-08-11T15:04:56;37.90;46.00
52203;DHT22;38173;52.850;6.970;2022-08-11T15:07:24;37.50;46.80
52203;DHT22;38173;52.850;6.970;2022-08-11T15:10:03;36.90;47.70
52203;DHT22;38173;52.850;6.970;2022-08-11T15:12:30;36.40;44.80
52203;DHT22;38173;52.850;6.970;2022-08-11T15:14:57;36.20;47.00
52203;DHT22;38173;52.850;6.970;2022-08-11T15:17:43;36.30;47.10
52203;DHT22;38173;52.850;6.970;2022-08-11T15:20:15;36.50;45.60
52203;DHT22;38173;52.850;6.970;2022-08-11T15:23:02;36.80;47.20
52203;DHT22;38173;52.850;6.970;2022-08-11T15:25:59;37.10;44.30
52203;DHT22;38173;52.850;6.970;2022-08-11T15:28:27;36.50;42.50
52203;DHT22;38173;52.850;6.970;2022-08-11T15:31:13;35.80;46.00
52203;DHT22;38173;52.850;6.970;2022-08-11T15:33:56;35.20;46.80
52203;DHT22;38173;52.850;6.970;2022-08-11T15:36:42;34.70;46.50
52203;DHT22;38173;52.850;6.970;2022-08-11T15:42:52;34.00;48.10
52203;DHT22;38173;52.850;6.970;2022-08-11T15:45:39;34.00;49.60
52203;DHT22;38173;52.850;6.970;2022-08-11T15:51:22;35.20;50.30
52203;DHT22;38173;52.850;6.970;2022-08-11T15:53:52;35.90;48.10
52203;DHT22;38173;52.850;6.970;2022-08-11T15:56:22;36.70;45.80
52203;DHT22;38173;52.850;6.970;2022-08-11T15:58:51;37.30;45.70
52203;DHT22;38173;52.850;6.970;2022-08-11T16:01:39;37.80;47.30
52203;DHT22;38173;52.850;6.970;2022-08-11T16:04:28;38.40;48.10
52203;DHT22;38173;52.850;6.970;2022-08-11T16:07:05;38.70;42.00
52203;DHT22;38173;52.850;6.970;2022-08-11T16:12:12;39.20;45.90
52203;DHT22;38173;52.850;6.970;2022-08-11T16:14:42;39.40;42.10
52203;DHT22;38173;52.850;6.970;2022-08-11T16:17:40;39.80;45.40
52203;DHT22;38173;52.850;6.970;2022-08-11T16:20:07;40.30;46.20
52203;DHT22;38173;52.850;6.970;2022-08-11T16:22:34;40.70;42.80
52203;DHT22;38173;52.850;6.970;2022-08-11T16:25:10;41.10;44.20
52203;DHT22;38173;52.850;6.970;2022-08-11T16:27:46;41.40;42.80
52203;DHT22;38173;52.850;6.970;2022-08-11T16:30:12;41.20;41.80
52203;DHT22;38173;52.850;6.970;2022-08-11T16:32:44;40.90;39.50
52203;DHT22;38173;52.850;6.970;2022-08-11T16:35:15;40.90;42.20
52203;DHT22;38173;52.850;6.970;2022-08-11T16:38:02;40.70;42.30
52203;DHT22;38173;52.850;6.970;2022-08-11T16:40:49;40.90;41.30
52203;DHT22;38173;52.850;6.970;2022-08-11T16:43:18;41.10;43.20
52203;DHT22;38173;52.850;6.970;2022-08-11T16:46:04;40.80;40.90
52203;DHT22;38173;52.850;6.970;2022-08-11T16:48:45;41.00;43.20
52203;DHT22;38173;52.850;6.970;2022-08-11T16:51:12;41.10;41.30
52203;DHT22;38173;52.850;6.970;2022-08-11T16:53:39;41.30;43.70
52203;DHT22;38173;52.850;6.970;2022-08-11T16:56:11;41.10;42.90
52203;DHT22;38173;52.850;6.970;2022-08-11T16:58:41;40.90;41.00
52203;DHT22;38173;52.850;6.970;2022-08-11T17:01:26;40.50;40.30
52203;DHT22;38173;52.850;6.970;2022-08-11T17:04:02;40.70;43.40
52203;DHT22;38173;52.850;6.970;2022-08-11T17:06:51;40.80;43.40
52203;DHT22;38173;52.850;6.970;2022-08-11T17:09:37;41.20;42.10
52203;DHT22;38173;52.850;6.970;2022-08-11T17:12:25;41.10;40.90
52203;DHT22;38173;52.850;6.970;2022-08-11T17:15:17;41.00;42.20
52203;DHT22;38173;52.850;6.970;2022-08-11T17:18:02;40.90;40.00
52203;DHT22;38173;52.850;6.970;2022-08-11T17:20:29;40.40;39.90
52203;DHT22;38173;52.850;6.970;2022-08-11T17:22:55;40.30;41.50
52203;DHT22;38173;52.850;6.970;2022-08-11T17:25:41;39.90;41.50
52203;DHT22;38173;52.850;6.970;2022-08-11T17:28:09;39.70;42.10
52203;DHT22;38173;52.850;6.970;2022-08-11T17:30:36;39.60;41.70
52203;DHT22;38173;52.850;6.970;2022-08-11T17:33:22;39.30;41.50
52203;DHT22;38173;52.850;6.970;2022-08-11T17:36:07;38.10;41.30
52203;DHT22;38173;52.850;6.970;2022-08-11T17:38:34;36.30;42.70
52203;DHT22;38173;52.850;6.970;2022-08-11T17:41:01;35.00;43.50
52203;DHT22;38173;52.850;6.970;2022-08-11T17:43:47;33.90;44.80
52203;DHT22;38173;52.850;6.970;2022-08-11T17:46:34;32.90;45.50
52203;DHT22;38173;52.850;6.970;2022-08-11T17:49:19;32.10;47.20
52203;DHT22;38173;52.850;6.970;2022-08-11T17:51:47;31.40;47.20
52203;DHT22;38173;52.850;6.970;2022-08-11T17:54:34;30.90;47.90
52203;DHT22;38173;52.850;6.970;2022-08-11T17:57:19;30.40;48.90
52203;DHT22;38173;52.850;6.970;2022-08-11T18:00:05;30.00;49.70
52203;DHT22;38173;52.850;6.970;2022-08-11T18:02:36;29.60;50.20
52203;DHT22;38173;52.850;6.970;2022-08-11T18:05:24;29.40;50.80
52203;DHT22;38173;52.850;6.970;2022-08-11T18:07:53;29.00;51.70
52203;DHT22;38173;52.850;6.970;2022-08-11T18:10:39;28.80;52.40
52203;DHT22;38173;52.850;6.970;2022-08-11T18:13:26;28.60;53.40
52203;DHT22;38173;52.850;6.970;2022-08-11T18:16:12;28.40;54.10
52203;DHT22;38173;52.850;6.970;2022-08-11T18:18:56;28.10;54.90
52203;DHT22;38173;52.850;6.970;2022-08-11T18:21:43;27.90;55.60
52203;DHT22;38173;52.850;6.970;2022-08-11T18:24:32;27.70;56.40
52203;DHT22;38173;52.850;6.970;2022-08-11T18:27:17;27.50;57.00
52203;DHT22;38173;52.850;6.970;2022-08-11T18:30:04;27.30;57.10
52203;DHT22;38173;52.850;6.970;2022-08-11T18:32:51;27.20;58.30
52203;DHT22;38173;52.850;6.970;2022-08-11T18:35:37;27.00;58.70
52203;DHT22;38173;52.850;6.970;2022-08-11T18:38:25;26.90;58.90
52203;DHT22;38173;52.850;6.970;2022-08-11T18:41:11;26.70;58.90
52203;DHT22;38173;52.850;6.970;2022-08-11T18:44:00;26.60;59.30
52203;DHT22;38173;52.850;6.970;2022-08-11T18:46:49;26.50;59.70
52203;DHT22;38173;52.850;6.970;2022-08-11T18:49:37;26.30;60.60
52203;DHT22;38173;52.850;6.970;2022-08-11T18:52:22;26.20;60.70
52203;DHT22;38173;52.850;6.970;2022-08-11T18:55:10;26.10;60.70
52203;DHT22;38173;52.850;6.970;2022-08-11T18:57:59;26.00;61.40
52203;DHT22;38173;52.850;6.970;2022-08-11T19:00:46;25.90;61.60
52203;DHT22;38173;52.850;6.970;2022-08-11T19:03:30;25.70;61.30
52203;DHT22;38173;52.850;6.970;2022-08-11T19:06:18;25.60;62.20
52203;DHT22;38173;52.850;6.970;2022-08-11T19:09:06;25.60;62.70
52203;DHT22;38173;52.850;6.970;2022-08-11T19:11:51;25.40;62.30
52203;DHT22;38173;52.850;6.970;2022-08-11T19:14:37;25.30;63.00
52203;DHT22;38173;52.850;6.970;2022-08-11T19:17:23;25.20;62.90
52203;DHT22;38173;52.850;6.970;2022-08-11T19:20:24;25.10;63.50
52203;DHT22;38173;52.850;6.970;2022-08-11T19:23:11;25.00;63.40
52203;DHT22;38173;52.850;6.970;2022-08-11T19:25:59;24.90;63.50
52203;DHT22;38173;52.850;6.970;2022-08-11T19:28:46;24.80;64.10
52203;DHT22;38173;52.850;6.970;2022-08-11T19:31:32;24.70;64.70
52203;DHT22;38173;52.850;6.970;2022-08-11T19:34:20;24.60;64.50
52203;DHT22;38173;52.850;6.970;2022-08-11T19:37:08;24.50;64.70
52203;DHT22;38173;52.850;6.970;2022-08-11T19:40:04;24.40;65.30
52203;DHT22;38173;52.850;6.970;2022-08-11T19:42:49;24.20;65.70
52203;DHT22;38173;52.850;6.970;2022-08-11T19:45:35;24.10;66.10
52203;DHT22;38173;52.850;6.970;2022-08-11T19:48:21;23.90;67.40
52203;DHT22;38173;52.850;6.970;2022-08-11T19:51:05;23.80;66.90